sensor_id;sensor_type;location;lat;lon;timestamp;P1;durP1;ratioP1;P2;durP2;ratioP2
19002;SDS011;9634;51.040;13.794;2022-09-09T00:04:12;4.80;;;1.20;;
19002;SDS011;9634;51.040;13.794;2022-09-09T00:09:17;3.90;;;1.20;;
19002;SDS011;9634;51.040;13.794;2022-09-09T00:14:22;5.47;;;1.30;;
19002;SDS011;9634;51.040;13.794;2022-09-09T00:19:27;3.50;;;1.10;;
19002;SDS011;9634;51.040;13.794;2022-09-09T00:24:36;4.30;;;1.40;;
19002;SDS011;9634;51.040;13.794;2022-09-09T00:29:41;2.43;;;1.30;;
19002;SDS011;9634;51.040;13.794;2022-09-09T00:34:47;3.73;;;1.47;;
19002;SDS011;9634;51.040;13.794;2022-09-09T00:39:51;6.20;;;1.53;;
19002;SDS011;9634;51.040;13.794;2022-09-09T00:44:56;2.20;;;1.60;;
19002;SDS011;9634;51.040;13.794;2022-09-09T00:50:03;2.77;;;1.40;;
19002;SDS011;9634;51.040;13.794;2022-09-09T00:55:08;3.40;;;1.80;;
19002;SDS011;9634;51.040;13.794;2022-09-09T01:00:19;3.37;;;1.40;;
19002;SDS011;9634;51.040;13.794;2022-09-09T01:05:25;2.80;;;1.53;;
19002;SDS011;9634;51.040;13.794;2022-09-09T01:10:30;3.70;;;2.00;;
19002;SDS011;9634;51.040;13.794;2022-09-09T01:15:37;1.70;;;1.20;;
19002;SDS011;9634;51.040;13.794;2022-09-09T01:20:44;3.03;;;1.50;;
19002;SDS011;9634;51.040;13.794;2022-09-09T01:26:11;2.83;;;1.40;;
19002;SDS011;9634;51.040;13.794;2022-09-09T01:31:17;2.57;;;1.90;;
19002;SDS011;9634;51.040;13.794;2022-09-09T01:36:24;4.73;;;1.83;;
19002;SDS011;9634;51.040;13.794;2022-09-09T01:41:30;2.67;;;1.47;;
19002;SDS011;9634;51.040;13.794;2022-09-09T01:46:39;3.03;;;1.57;;
19002;SDS011;9634;51.040;13.794;2022-09-09T01:51:49;6.10;;;1.50;;
19002;SDS011;9634;51.040;13.794;2022-09-09T01:57:00;3.17;;;1.53;;
19002;SDS011;9634;51.040;13.794;2022-09-09T02:02:08;3.70;;;1.57;;
19002;SDS011;9634;51.040;13.794;2022-09-09T02:07:19;2.97;;;1.63;;
19002;SDS011;9634;51.040;13.794;2022-09-09T02:12:26;3.27;;;1.40;;
19002;SDS011;9634;51.040;13.794;2022-09-09T02:17:33;3.17;;;1.20;;
19002;SDS011;9634;51.040;13.794;2022-09-09T02:22:43;2.10;;;1.40;;
19002;SDS011;9634;51.040;13.794;2022-09-09T02:27:51;1.80;;;1.40;;
19002;SDS011;9634;51.040;13.794;2022-09-09T02:32:55;4.57;;;1.80;;
19002;SDS011;9634;51.040;13.794;2022-09-09T02:38:12;5.07;;;1.70;;
19002;SDS011;9634;51.040;13.794;2022-09-09T02:43:22;6.23;;;1.80;;
19002;SDS011;9634;51.040;13.794;2022-09-09T02:48:26;2.77;;;1.67;;
19002;SDS011;9634;51.040;13.794;2022-09-09T02:53:31;4.13;;;1.80;;
19002;SDS011;9634;51.040;13.794;2022-09-09T02:58:37;3.10;;;1.70;;
19002;SDS011;9634;51.040;13.794;2022-09-09T03:03:42;7.80;;;1.80;;
19002;SDS011;9634;51.040;13.794;2022-09-09T03:08:49;4.27;;;1.40;;
19002;SDS011;9634;51.040;13.794;2022-09-09T03:13:58;5.57;;;1.20;;
19002;SDS011;9634;51.040;13.794;2022-09-09T03:19:04;5.33;;;1.67;;
19002;SDS011;9634;51.040;13.794;2022-09-09T03:24:07;1.70;;;1.30;;
19002;SDS011;9634;51.040;13.794;2022-09-09T03:29:12;5.23;;;1.70;;
19002;SDS011;9634;51.040;13.794;2022-09-09T03:34:16;4.00;;;1.60;;
19002;SDS011;9634;51.040;13.794;2022-09-09T03:39:19;3.50;;;1.80;;
19002;SDS011;9634;51.040;13.794;2022-09-09T03:44:23;5.57;;;1.90;;
19002;SDS011;9634;51.040;13.794;2022-09-09T03:49:26;4.67;;;1.60;;
19002;SDS011;9634;51.040;13.794;2022-09-09T03:54:30;3.23;;;1.87;;
19002;SDS011;9634;51.040;13.794;2022-09-09T03:59:34;5.03;;;1.67;;
19002;SDS011;9634;51.040;13.794;2022-09-09T04:04:37;3.07;;;1.70;;
19002;SDS011;9634;51.040;13.794;2022-09-09T04:09:40;7.30;;;2.00;;
19002;SDS011;9634;51.040;13.794;2022-09-09T04:14:44;6.03;;;1.67;;
19002;SDS011;9634;51.040;13.794;2022-09-09T04:19:47;3.23;;;2.00;;
19002;SDS011;9634;51.040;13.794;2022-09-09T04:24:50;4.97;;;2.00;;
19002;SDS011;9634;51.040;13.794;2022-09-09T04:29:55;5.50;;;1.93;;
19002;SDS011;9634;51.040;13.794;2022-09-09T04:35:00;3.93;;;2.13;;
19002;SDS011;9634;51.040;13.794;2022-09-09T04:40:03;8.93;;;2.30;;
19002;SDS011;9634;51.040;13.794;2022-09-09T04:45:08;4.93;;;2.20;;
19002;SDS011;9634;51.040;13.794;2022-09-09T04:50:11;5.03;;;2.00;;
19002;SDS011;9634;51.040;13.794;2022-09-09T04:55:14;4.90;;;2.10;;
19002;SDS011;9634;51.040;13.794;2022-09-09T05:00:20;5.10;;;1.90;;
19002;SDS011;9634;51.040;13.794;2022-09-09T05:05:23;4.30;;;1.90;;
19002;SDS011;9634;51.040;13.794;2022-09-09T05:10:27;6.10;;;2.10;;
19002;SDS011;9634;51.040;13.794;2022-09-09T05:15:31;4.13;;;2.07;;
19002;SDS011;9634;51.040;13.794;2022-09-09T05:20:36;3.50;;;1.80;;
19002;SDS011;9634;51.040;13.794;2022-09-09T05:25:39;9.53;;;2.07;;
19002;SDS011;9634;51.040;13.794;2022-09-09T05:30:43;4.80;;;1.63;;
19002;SDS011;9634;51.040;13.794;2022-09-09T05:35:46;4.80;;;2.03;;
19002;SDS011;9634;51.040;13.794;2022-09-09T05:40:49;5.00;;;1.70;;
19002;SDS011;9634;51.040;13.794;2022-09-09T05:46:01;9.70;;;2.40;;
19002;SDS011;9634;51.040;13.794;2022-09-09T05:51:05;3.33;;;1.60;;
19002;SDS011;9634;51.040;13.794;2022-09-09T05:56:09;5.27;;;1.67;;
19002;SDS011;9634;51.040;13.794;2022-09-09T06:01:15;2.27;;;1.50;;
19002;SDS011;9634;51.040;13.794;2022-09-09T06:06:18;2.33;;;1.40;;
19002;SDS011;9634;51.040;13.794;2022-09-09T06:11:22;1.80;;;1.33;;
19002;SDS011;9634;51.040;13.794;2022-09-09T06:16:27;3.87;;;1.37;;
19002;SDS011;9634;51.040;13.794;2022-09-09T06:21:30;5.20;;;1.83;;
19002;SDS011;9634;51.040;13.794;2022-09-09T06:26:35;3.97;;;1.90;;
19002;SDS011;9634;51.040;13.794;2022-09-09T06:31:42;4.23;;;1.40;;
19002;SDS011;9634;51.040;13.794;2022-09-09T06:36:55;4.83;;;1.50;;
19002;SDS011;9634;51.040;13.794;2022-09-09T06:41:59;2.67;;;1.47;;
19002;SDS011;9634;51.040;13.794;2022-09-09T06:47:24;4.13;;;1.40;;
19002;SDS011;9634;51.040;13.794;2022-09-09T06:52:30;2.37;;;1.33;;
19002;SDS011;9634;51.040;13.794;2022-09-09T06:57:33;4.13;;;1.83;;
19002;SDS011;9634;51.040;13.794;2022-09-09T07:02:37;3.60;;;1.30;;
19002;SDS011;9634;51.040;13.794;2022-09-09T07:07:43;5.50;;;1.67;;
19002;SDS011;9634;51.040;13.794;2022-09-09T07:12:50;4.00;;;1.30;;
19002;SDS011;9634;51.040;13.794;2022-09-09T07:17:55;3.10;;;1.50;;
19002;SDS011;9634;51.040;13.794;2022-09-09T07:23:03;2.63;;;1.27;;
19002;SDS011;9634;51.040;13.794;2022-09-09T07:28:06;3.73;;;1.27;;
19002;SDS011;9634;51.040;13.794;2022-09-09T07:33:10;5.07;;;1.13;;
19002;SDS011;9634;51.040;13.794;2022-09-09T07:38:13;2.70;;;1.10;;
19002;SDS011;9634;51.040;13.794;2022-09-09T07:43:16;4.23;;;1.33;;
19002;SDS011;9634;51.040;13.794;2022-09-09T07:48:21;4.40;;;1.43;;
19002;SDS011;9634;51.040;13.794;2022-09-09T07:53:24;5.43;;;1.50;;
19002;SDS011;9634;51.040;13.794;2022-09-09T07:58:27;4.37;;;1.30;;
19002;SDS011;9634;51.040;13.794;2022-09-09T08:03:31;3.97;;;1.30;;
19002;SDS011;9634;51.040;13.794;2022-09-09T08:08:33;2.73;;;1.07;;
19002;SDS011;9634;51.040;13.794;2022-09-09T08:13:37;2.73;;;1.10;;
19002;SDS011;9634;51.040;13.794;2022-09-09T08:18:41;3.87;;;1.10;;
19002;SDS011;9634;51.040;13.794;2022-09-09T08:23:45;5.50;;;1.40;;
19002;SDS011;9634;51.040;13.794;2022-09-09T08:28:49;5.20;;;1.27;;
19002;SDS011;9634;51.040;13.794;2022-09-09T08:33:55;5.57;;;1.60;;
19002;SDS011;9634;51.040;13.794;2022-09-09T08:39:00;6.57;;;1.53;;
19002;SDS011;9634;51.040;13.794;2022-09-09T08:44:05;3.90;;;1.20;;
19002;SDS011;9634;51.040;13.794;2022-09-09T08:49:14;2.40;;;1.30;;
19002;SDS011;9634;51.040;13.794;2022-09-09T08:54:20;2.07;;;1.20;;
19002;SDS011;9634;51.040;13.794;2022-09-09T08:59:23;2.63;;;1.23;;
19002;SDS011;9634;51.040;13.794;2022-09-09T09:04:37;4.10;;;1.43;;
19002;SDS011;9634;51.040;13.794;2022-09-09T09:09:46;4.10;;;1.90;;
19002;SDS011;9634;51.040;13.794;2022-09-09T09:14:54;3.20;;;1.10;;
19002;SDS011;9634;51.040;13.794;2022-09-09T09:20:00;2.97;;;1.00;;
19002;SDS011;9634;51.040;13.794;2022-09-09T09:25:08;3.40;;;1.07;;
19002;SDS011;9634;51.040;13.794;2022-09-09T09:30:17;7.50;;;1.30;;
19002;SDS011;9634;51.040;13.794;2022-09-09T09:35:23;5.63;;;1.30;;
19002;SDS011;9634;51.040;13.794;2022-09-09T09:40:26;7.30;;;1.20;;
19002;SDS011;9634;51.040;13.794;2022-09-09T09:45:31;5.93;;;1.53;;
19002;SDS011;9634;51.040;13.794;2022-09-09T09:50:40;6.10;;;1.83;;
19002;SDS011;9634;51.040;13.794;2022-09-09T09:55:50;9.33;;;3.17;;
19002;SDS011;9634;51.040;13.794;2022-09-09T10:00:56;7.07;;;2.30;;
19002;SDS011;9634;51.040;13.794;2022-09-09T10:06:04;8.27;;;1.63;;
19002;SDS011;9634;51.040;13.794;2022-09-09T10:11:10;4.23;;;1.20;;
19002;SDS011;9634;51.040;13.794;2022-09-09T10:16:29;1.97;;;0.70;;
19002;SDS011;9634;51.040;13.794;2022-09-09T10:21:56;3.72;;;1.05;;
19002;SDS011;9634;51.040;13.794;2022-09-09T10:27:24;3.00;;;0.70;;
19002;SDS011;9634;51.040;13.794;2022-09-09T10:32:36;2.05;;;0.80;;
19002;SDS011;9634;51.040;13.794;2022-09-09T10:37:44;4.35;;;0.77;;
19002;SDS011;9634;51.040;13.794;2022-09-09T10:43:07;4.72;;;1.10;;
19002;SDS011;9634;51.040;13.794;2022-09-09T10:48:20;4.82;;;0.82;;
19002;SDS011;9634;51.040;13.794;2022-09-09T10:53:46;1.75;;;0.70;;
19002;SDS011;9634;51.040;13.794;2022-09-09T10:58:56;5.90;;;1.00;;
19002;SDS011;9634;51.040;13.794;2022-09-09T11:04:02;1.95;;;0.57;;
19002;SDS011;9634;51.040;13.794;2022-09-09T11:09:13;3.22;;;0.80;;
19002;SDS011;9634;51.040;13.794;2022-09-09T11:14:19;3.13;;;0.77;;
19002;SDS011;9634;51.040;13.794;2022-09-09T11:19:28;1.65;;;0.57;;
19002;SDS011;9634;51.040;13.794;2022-09-09T11:24:37;3.55;;;0.70;;
19002;SDS011;9634;51.040;13.794;2022-09-09T11:29:45;3.65;;;0.90;;
19002;SDS011;9634;51.040;13.794;2022-09-09T11:35:07;4.43;;;1.25;;
19002;SDS011;9634;51.040;13.794;2022-09-09T11:40:24;3.35;;;1.20;;
19002;SDS011;9634;51.040;13.794;2022-09-09T11:45:27;3.65;;;0.98;;
19002;SDS011;9634;51.040;13.794;2022-09-09T11:50:31;6.22;;;1.45;;
19002;SDS011;9634;51.040;13.794;2022-09-09T11:55:37;4.03;;;1.20;;
19002;SDS011;9634;51.040;13.794;2022-09-09T12:00:40;2.17;;;0.77;;
19002;SDS011;9634;51.040;13.794;2022-09-09T12:05:44;4.45;;;1.00;;
19002;SDS011;9634;51.040;13.794;2022-09-09T12:10:54;4.50;;;1.15;;
19002;SDS011;9634;51.040;13.794;2022-09-09T12:15:58;4.20;;;0.88;;
19002;SDS011;9634;51.040;13.794;2022-09-09T12:21:03;2.17;;;0.85;;
19002;SDS011;9634;51.040;13.794;2022-09-09T12:31:33;2.95;;;0.70;;
19002;SDS011;9634;51.040;13.794;2022-09-09T12:36:37;3.70;;;0.93;;
19002;SDS011;9634;51.040;13.794;2022-09-09T12:41:41;2.42;;;1.00;;
19002;SDS011;9634;51.040;13.794;2022-09-09T12:46:57;1.80;;;0.70;;
19002;SDS011;9634;51.040;13.794;2022-09-09T12:52:03;6.03;;;1.02;;
19002;SDS011;9634;51.040;13.794;2022-09-09T12:57:09;2.45;;;0.93;;
19002;SDS011;9634;51.040;13.794;2022-09-09T13:02:17;3.17;;;1.00;;
19002;SDS011;9634;51.040;13.794;2022-09-09T13:07:21;2.95;;;1.00;;
19002;SDS011;9634;51.040;13.794;2022-09-09T13:12:26;2.35;;;0.80;;
19002;SDS011;9634;51.040;13.794;2022-09-09T13:17:28;2.85;;;1.25;;
19002;SDS011;9634;51.040;13.794;2022-09-09T13:22:31;1.75;;;0.73;;
19002;SDS011;9634;51.040;13.794;2022-09-09T13:27:38;1.80;;;1.00;;
19002;SDS011;9634;51.040;13.794;2022-09-09T13:32:43;2.38;;;1.10;;
19002;SDS011;9634;51.040;13.794;2022-09-09T13:37:45;1.85;;;0.88;;
19002;SDS011;9634;51.040;13.794;2022-09-09T13:42:50;3.80;;;0.90;;
19002;SDS011;9634;51.040;13.794;2022-09-09T13:47:53;2.58;;;1.00;;
19002;SDS011;9634;51.040;13.794;2022-09-09T13:52:57;4.13;;;0.95;;
19002;SDS011;9634;51.040;13.794;2022-09-09T13:58:02;1.77;;;0.90;;
19002;SDS011;9634;51.040;13.794;2022-09-09T14:03:05;5.43;;;1.00;;
19002;SDS011;9634;51.040;13.794;2022-09-09T14:08:07;3.05;;;1.27;;
19002;SDS011;9634;51.040;13.794;2022-09-09T14:13:20;3.08;;;1.10;;
19002;SDS011;9634;51.040;13.794;2022-09-09T14:18:22;3.45;;;1.17;;
19002;SDS011;9634;51.040;13.794;2022-09-09T14:23:25;4.68;;;1.00;;
19002;SDS011;9634;51.040;13.794;2022-09-09T14:28:29;1.88;;;0.80;;
19002;SDS011;9634;51.040;13.794;2022-09-09T14:33:31;2.90;;;0.75;;
19002;SDS011;9634;51.040;13.794;2022-09-09T14:38:34;2.63;;;1.05;;
19002;SDS011;9634;51.040;13.794;2022-09-09T14:43:41;3.28;;;0.93;;
19002;SDS011;9634;51.040;13.794;2022-09-09T14:48:43;2.72;;;1.30;;
19002;SDS011;9634;51.040;13.794;2022-09-09T14:53:50;5.10;;;1.10;;
19002;SDS011;9634;51.040;13.794;2022-09-09T14:58:56;5.15;;;1.13;;
19002;SDS011;9634;51.040;13.794;2022-09-09T15:04:01;2.60;;;1.00;;
19002;SDS011;9634;51.040;13.794;2022-09-09T15:09:05;5.35;;;1.08;;
19002;SDS011;9634;51.040;13.794;2022-09-09T15:14:09;4.10;;;1.10;;
19002;SDS011;9634;51.040;13.794;2022-09-09T15:19:12;2.75;;;0.90;;
19002;SDS011;9634;51.040;13.794;2022-09-09T15:24:14;3.45;;;1.05;;
19002;SDS011;9634;51.040;13.794;2022-09-09T15:29:18;3.75;;;1.25;;
19002;SDS011;9634;51.040;13.794;2022-09-09T15:34:20;2.40;;;1.00;;
19002;SDS011;9634;51.040;13.794;2022-09-09T15:39:22;7.57;;;1.30;;
19002;SDS011;9634;51.040;13.794;2022-09-09T15:44:26;4.70;;;1.27;;
19002;SDS011;9634;51.040;13.794;2022-09-09T15:49:28;4.13;;;0.90;;
19002;SDS011;9634;51.040;13.794;2022-09-09T15:54:32;3.50;;;0.85;;
19002;SDS011;9634;51.040;13.794;2022-09-09T15:59:36;4.35;;;1.10;;
19002;SDS011;9634;51.040;13.794;2022-09-09T16:04:38;7.20;;;1.43;;
19002;SDS011;9634;51.040;13.794;2022-09-09T16:09:41;4.30;;;1.00;;
19002;SDS011;9634;51.040;13.794;2022-09-09T16:14:45;3.73;;;1.30;;
19002;SDS011;9634;51.040;13.794;2022-09-09T16:19:47;4.03;;;1.10;;
19002;SDS011;9634;51.040;13.794;2022-09-09T16:24:49;3.10;;;1.43;;
19002;SDS011;9634;51.040;13.794;2022-09-09T16:29:53;5.27;;;1.30;;
19002;SDS011;9634;51.040;13.794;2022-09-09T16:34:56;5.20;;;1.30;;
19002;SDS011;9634;51.040;13.794;2022-09-09T16:39:58;4.13;;;1.40;;
19002;SDS011;9634;51.040;13.794;2022-09-09T16:45:02;3.70;;;1.27;;
19002;SDS011;9634;51.040;13.794;2022-09-09T16:50:05;4.80;;;1.20;;
19002;SDS011;9634;51.040;13.794;2022-09-09T16:55:08;4.50;;;1.15;;
19002;SDS011;9634;51.040;13.794;2022-09-09T17:00:12;3.70;;;1.60;;
19002;SDS011;9634;51.040;13.794;2022-09-09T17:05:14;5.90;;;1.43;;
19002;SDS011;9634;51.040;13.794;2022-09-09T17:10:17;8.07;;;1.33;;
19002;SDS011;9634;51.040;13.794;2022-09-09T17:15:21;4.07;;;1.37;;
19002;SDS011;9634;51.040;13.794;2022-09-09T17:20:23;2.50;;;1.30;;
19002;SDS011;9634;51.040;13.794;2022-09-09T17:25:26;4.07;;;1.50;;
19002;SDS011;9634;51.040;13.794;2022-09-09T17:30:30;5.43;;;1.20;;
19002;SDS011;9634;51.040;13.794;2022-09-09T17:35:32;5.83;;;2.13;;
19002;SDS011;9634;51.040;13.794;2022-09-09T17:40:35;3.00;;;1.50;;
19002;SDS011;9634;51.040;13.794;2022-09-09T17:45:39;6.83;;;1.90;;
19002;SDS011;9634;51.040;13.794;2022-09-09T17:50:41;5.30;;;1.90;;
19002;SDS011;9634;51.040;13.794;2022-09-09T17:55:43;5.40;;;2.70;;
19002;SDS011;9634;51.040;13.794;2022-09-09T18:00:47;3.87;;;1.73;;
19002;SDS011;9634;51.040;13.794;2022-09-09T18:05:50;4.53;;;1.53;;
19002;SDS011;9634;51.040;13.794;2022-09-09T18:10:52;6.37;;;2.20;;
19002;SDS011;9634;51.040;13.794;2022-09-09T18:15:56;5.00;;;2.33;;
19002;SDS011;9634;51.040;13.794;2022-09-09T18:20:59;5.60;;;2.10;;
19002;SDS011;9634;51.040;13.794;2022-09-09T18:26:06;5.43;;;2.10;;
19002;SDS011;9634;51.040;13.794;2022-09-09T18:31:11;5.67;;;2.43;;
19002;SDS011;9634;51.040;13.794;2022-09-09T18:36:15;7.23;;;2.30;;
19002;SDS011;9634;51.040;13.794;2022-09-09T18:41:18;4.57;;;2.50;;
19002;SDS011;9634;51.040;13.794;2022-09-09T18:46:22;4.87;;;2.30;;
19002;SDS011;9634;51.040;13.794;2022-09-09T18:51:26;6.27;;;2.53;;
19002;SDS011;9634;51.040;13.794;2022-09-09T18:56:30;4.40;;;2.30;;
19002;SDS011;9634;51.040;13.794;2022-09-09T19:01:33;4.30;;;2.40;;
19002;SDS011;9634;51.040;13.794;2022-09-09T19:06:37;5.63;;;2.00;;
19002;SDS011;9634;51.040;13.794;2022-09-09T19:11:39;5.17;;;1.70;;
19002;SDS011;9634;51.040;13.794;2022-09-09T19:16:43;5.67;;;2.50;;
19002;SDS011;9634;51.040;13.794;2022-09-09T19:21:47;7.67;;;2.60;;
19002;SDS011;9634;51.040;13.794;2022-09-09T19:26:51;5.13;;;2.70;;
19002;SDS011;9634;51.040;13.794;2022-09-09T19:31:58;5.60;;;2.93;;
19002;SDS011;9634;51.040;13.794;2022-09-09T19:37:02;4.93;;;2.60;;
19002;SDS011;9634;51.040;13.794;2022-09-09T19:42:04;7.87;;;3.40;;
19002;SDS011;9634;51.040;13.794;2022-09-09T19:47:08;5.33;;;2.80;;
19002;SDS011;9634;51.040;13.794;2022-09-09T19:52:10;5.57;;;3.17;;
19002;SDS011;9634;51.040;13.794;2022-09-09T19:57:12;5.87;;;2.77;;
19002;SDS011;9634;51.040;13.794;2022-09-09T20:02:16;8.23;;;2.83;;
19002;SDS011;9634;51.040;13.794;2022-09-09T20:07:18;6.53;;;2.87;;
19002;SDS011;9634;51.040;13.794;2022-09-09T20:12:21;5.80;;;2.67;;
19002;SDS011;9634;51.040;13.794;2022-09-09T20:17:24;5.73;;;2.40;;
19002;SDS011;9634;51.040;13.794;2022-09-09T20:22:26;8.17;;;2.37;;
19002;SDS011;9634;51.040;13.794;2022-09-09T20:27:29;8.63;;;2.33;;
19002;SDS011;9634;51.040;13.794;2022-09-09T20:32:32;7.23;;;2.80;;
19002;SDS011;9634;51.040;13.794;2022-09-09T20:37:35;4.10;;;1.93;;
19002;SDS011;9634;51.040;13.794;2022-09-09T20:42:37;6.83;;;2.50;;
19002;SDS011;9634;51.040;13.794;2022-09-09T20:47:41;4.07;;;2.30;;
19002;SDS011;9634;51.040;13.794;2022-09-09T20:52:43;5.73;;;2.23;;
19002;SDS011;9634;51.040;13.794;2022-09-09T20:57:46;5.90;;;2.73;;
19002;SDS011;9634;51.040;13.794;2022-09-09T21:02:50;8.43;;;2.90;;
19002;SDS011;9634;51.040;13.794;2022-09-09T21:07:53;6.23;;;2.40;;
19002;SDS011;9634;51.040;13.794;2022-09-09T21:12:56;4.37;;;2.63;;
19002;SDS011;9634;51.040;13.794;2022-09-09T21:18:02;3.37;;;2.13;;
19002;SDS011;9634;51.040;13.794;2022-09-09T21:23:04;5.00;;;2.87;;
19002;SDS011;9634;51.040;13.794;2022-09-09T21:28:06;4.90;;;1.80;;
19002;SDS011;9634;51.040;13.794;2022-09-09T21:33:10;4.53;;;1.67;;
19002;SDS011;9634;51.040;13.794;2022-09-09T21:38:14;3.87;;;1.70;;
19002;SDS011;9634;51.040;13.794;2022-09-09T21:43:18;6.50;;;1.63;;
19002;SDS011;9634;51.040;13.794;2022-09-09T21:48:24;3.43;;;1.70;;
19002;SDS011;9634;51.040;13.794;2022-09-09T21:53:26;3.43;;;1.90;;
19002;SDS011;9634;51.040;13.794;2022-09-09T21:58:28;4.67;;;1.70;;
19002;SDS011;9634;51.040;13.794;2022-09-09T22:03:32;6.47;;;1.80;;
19002;SDS011;9634;51.040;13.794;2022-09-09T22:08:37;2.30;;;1.40;;
19002;SDS011;9634;51.040;13.794;2022-09-09T22:13:39;4.50;;;1.90;;
19002;SDS011;9634;51.040;13.794;2022-09-09T22:18:50;4.97;;;1.50;;
19002;SDS011;9634;51.040;13.794;2022-09-09T22:23:53;3.30;;;1.43;;
19002;SDS011;9634;51.040;13.794;2022-09-09T22:28:57;4.83;;;1.53;;
19002;SDS011;9634;51.040;13.794;2022-09-09T22:34:01;6.57;;;1.90;;
19002;SDS011;9634;51.040;13.794;2022-09-09T22:39:03;4.67;;;1.50;;
